sensor_id;sensor_type;location;lat;lon;timestamp;temperature;humidity
57719;DHT22;43561;50.090;18.522;2022-08-03T00:07:22;15.90;99.90
57719;DHT22;43561;50.090;18.522;2022-08-03T00:17:24;16.00;99.90
57719;DHT22;43561;50.090;18.522;2022-08-03T00:27:26;15.60;99.90
57719;DHT22;43561;50.090;18.522;2022-08-03T00:37:33;15.60;99.90
57719;DHT22;43561;50.090;18.522;2022-08-03T00:47:43;15.70;99.90
57719;DHT22;43561;50.090;18.522;2022-08-03T00:57:46;15.60;99.90
57719;DHT22;43561;50.090;18.522;2022-08-03T01:08:11;15.50;99.90
57719;DHT22;43561;50.090;18.522;2022-08-03T01:28:55;15.10;99.90
57719;DHT22;43561;50.090;18.522;2022-08-03T01:39:03;15.00;99.90
57719;DHT22;43561;50.090;18.522;2022-08-03T01:49:08;15.00;99.90
57719;DHT22;43561;50.090;18.522;2022-08-03T01:59:13;14.80;99.90
57719;DHT22;43561;50.090;18.522;2022-08-03T02:09:19;14.70;99.90
57719;DHT22;43561;50.090;18.522;2022-08-03T02:19:23;14.70;99.90
57719;DHT22;43561;50.090;18.522;2022-08-03T02:29:32;14.50;99.90
57719;DHT22;43561;50.090;18.522;2022-08-03T02:39:42;14.60;99.90
57719;DHT22;43561;50.090;18.522;2022-08-03T02:49:47;14.40;99.90
57719;DHT22;43561;50.090;18.522;2022-08-03T02:59:53;14.30;99.90
57719;DHT22;43561;50.090;18.522;2022-08-03T03:09:56;14.30;99.90
57719;DHT22;43561;50.090;18.522;2022-08-03T03:19:58;14.40;99.90
57719;DHT22;43561;50.090;18.522;2022-08-03T03:30:01;14.20;99.90
57719;DHT22;43561;50.090;18.522;2022-08-03T03:40:04;14.20;99.90
57719;DHT22;43561;50.090;18.522;2022-08-03T03:50:06;14.50;99.90
57719;DHT22;43561;50.090;18.522;2022-08-03T04:00:10;14.80;99.90
57719;DHT22;43561;50.090;18.522;2022-08-03T04:10:19;15.20;99.90
57719;DHT22;43561;50.090;18.522;2022-08-03T04:20:23;15.40;99.90
57719;DHT22;43561;50.090;18.522;2022-08-03T04:30:28;15.70;99.90
57719;DHT22;43561;50.090;18.522;2022-08-03T04:40:35;16.50;99.90
57719;DHT22;43561;50.090;18.522;2022-08-03T04:50:39;16.90;99.90
57719;DHT22;43561;50.090;18.522;2022-08-03T05:00:41;18.10;99.90
57719;DHT22;43561;50.090;18.522;2022-08-03T05:10:43;19.20;99.90
57719;DHT22;43561;50.090;18.522;2022-08-03T05:20:45;19.90;99.90
57719;DHT22;43561;50.090;18.522;2022-08-03T05:30:47;20.60;99.90
57719;DHT22;43561;50.090;18.522;2022-08-03T05:40:49;22.20;99.90
57719;DHT22;43561;50.090;18.522;2022-08-03T05:51:11;23.10;99.90
57719;DHT22;43561;50.090;18.522;2022-08-03T06:01:15;21.90;99.90
57719;DHT22;43561;50.090;18.522;2022-08-03T06:11:17;23.60;99.90
57719;DHT22;43561;50.090;18.522;2022-08-03T06:21:19;24.30;98.80
57719;DHT22;43561;50.090;18.522;2022-08-03T06:31:26;24.90;96.80
57719;DHT22;43561;50.090;18.522;2022-08-03T06:41:34;25.30;93.80
57719;DHT22;43561;50.090;18.522;2022-08-03T06:51:45;26.20;92.20
57719;DHT22;43561;50.090;18.522;2022-08-03T07:02:07;25.80;91.80
57719;DHT22;43561;50.090;18.522;2022-08-03T07:12:09;27.30;88.90
57719;DHT22;43561;50.090;18.522;2022-08-03T07:22:13;27.30;87.40
57719;DHT22;43561;50.090;18.522;2022-08-03T07:32:16;27.00;85.30
57719;DHT22;43561;50.090;18.522;2022-08-03T07:42:19;28.20;82.10
57719;DHT22;43561;50.090;18.522;2022-08-03T07:52:21;28.50;80.00
57719;DHT22;43561;50.090;18.522;2022-08-03T08:02:29;29.30;75.40
57719;DHT22;43561;50.090;18.522;2022-08-03T08:12:31;28.50;74.10
57719;DHT22;43561;50.090;18.522;2022-08-03T08:22:33;28.40;73.40
57719;DHT22;43561;50.090;18.522;2022-08-03T08:32:34;28.60;70.30
57719;DHT22;43561;50.090;18.522;2022-08-03T08:42:37;28.10;72.80
57719;DHT22;43561;50.090;18.522;2022-08-03T08:52:40;29.50;69.00
57719;DHT22;43561;50.090;18.522;2022-08-03T09:02:43;28.80;69.50
57719;DHT22;43561;50.090;18.522;2022-08-03T09:12:49;27.00;69.90
57719;DHT22;43561;50.090;18.522;2022-08-03T09:23:06;27.60;65.60
57719;DHT22;43561;50.090;18.522;2022-08-03T09:33:28;27.90;65.80
57719;DHT22;43561;50.090;18.522;2022-08-03T09:43:45;28.00;62.70
57719;DHT22;43561;50.090;18.522;2022-08-03T09:53:47;27.30;63.20
57719;DHT22;43561;50.090;18.522;2022-08-03T10:04:00;26.60;62.00
57719;DHT22;43561;50.090;18.522;2022-08-03T10:14:06;27.90;62.30
57719;DHT22;43561;50.090;18.522;2022-08-03T10:24:09;28.30;61.70
57719;DHT22;43561;50.090;18.522;2022-08-03T10:34:18;27.00;58.80
57719;DHT22;43561;50.090;18.522;2022-08-03T10:44:25;28.10;57.80
57719;DHT22;43561;50.090;18.522;2022-08-03T11:04:38;28.50;56.50
57719;DHT22;43561;50.090;18.522;2022-08-03T11:14:47;27.80;56.10
57719;DHT22;43561;50.090;18.522;2022-08-03T11:45:17;28.30;54.50
57719;DHT22;43561;50.090;18.522;2022-08-03T11:55:19;27.80;56.00
57719;DHT22;43561;50.090;18.522;2022-08-03T12:05:32;28.80;54.80
57719;DHT22;43561;50.090;18.522;2022-08-03T12:15:35;28.30;55.60
57719;DHT22;43561;50.090;18.522;2022-08-03T12:25:39;27.80;57.40
57719;DHT22;43561;50.090;18.522;2022-08-03T12:35:41;27.90;57.00
57719;DHT22;43561;50.090;18.522;2022-08-03T12:46:14;28.00;54.10
57719;DHT22;43561;50.090;18.522;2022-08-03T12:56:17;28.60;53.70
57719;DHT22;43561;50.090;18.522;2022-08-03T13:06:23;28.70;54.10
57719;DHT22;43561;50.090;18.522;2022-08-03T13:16:25;28.10;55.60
57719;DHT22;43561;50.090;18.522;2022-08-03T13:26:27;28.10;55.40
57719;DHT22;43561;50.090;18.522;2022-08-03T13:36:29;27.30;55.90
57719;DHT22;43561;50.090;18.522;2022-08-03T13:46:51;27.60;54.50
57719;DHT22;43561;50.090;18.522;2022-08-03T13:56:53;28.00;54.80
57719;DHT22;43561;50.090;18.522;2022-08-03T14:07:03;27.60;55.70
57719;DHT22;43561;50.090;18.522;2022-08-03T14:17:05;28.00;55.30
57719;DHT22;43561;50.090;18.522;2022-08-03T14:27:08;27.50;54.30
57719;DHT22;43561;50.090;18.522;2022-08-03T14:37:10;27.60;55.20
57719;DHT22;43561;50.090;18.522;2022-08-03T14:47:13;27.50;53.80
57719;DHT22;43561;50.090;18.522;2022-08-03T14:57:15;27.40;52.50
57719;DHT22;43561;50.090;18.522;2022-08-03T15:07:17;27.60;52.60
57719;DHT22;43561;50.090;18.522;2022-08-03T15:17:19;27.50;52.80
57719;DHT22;43561;50.090;18.522;2022-08-03T15:27:22;27.40;52.90
57719;DHT22;43561;50.090;18.522;2022-08-03T15:37:24;27.50;52.70
57719;DHT22;43561;50.090;18.522;2022-08-03T15:47:26;27.20;52.10
57719;DHT22;43561;50.090;18.522;2022-08-03T15:57:28;27.10;52.60
57719;DHT22;43561;50.090;18.522;2022-08-03T16:07:31;27.40;52.90
57719;DHT22;43561;50.090;18.522;2022-08-03T16:17:33;27.20;52.70
57719;DHT22;43561;50.090;18.522;2022-08-03T16:27:34;27.10;51.80
57719;DHT22;43561;50.090;18.522;2022-08-03T16:37:57;27.00;52.80
57719;DHT22;43561;50.090;18.522;2022-08-03T16:47:59;27.00;53.60
57719;DHT22;43561;50.090;18.522;2022-08-03T16:58:06;26.70;53.90
57719;DHT22;43561;50.090;18.522;2022-08-03T17:08:13;26.80;54.00
57719;DHT22;43561;50.090;18.522;2022-08-03T17:18:16;26.60;54.50
57719;DHT22;43561;50.090;18.522;2022-08-03T17:28:23;26.60;55.70
57719;DHT22;43561;50.090;18.522;2022-08-03T17:38:48;26.40;55.10
57719;DHT22;43561;50.090;18.522;2022-08-03T17:48:53;26.10;57.20
57719;DHT22;43561;50.090;18.522;2022-08-03T18:09:10;25.40;60.80
57719;DHT22;43561;50.090;18.522;2022-08-03T18:19:34;25.10;64.60
57719;DHT22;43561;50.090;18.522;2022-08-03T18:29:57;24.50;67.60
57719;DHT22;43561;50.090;18.522;2022-08-03T18:40:00;24.00;69.50
57719;DHT22;43561;50.090;18.522;2022-08-03T19:00:23;23.20;84.20
57719;DHT22;43561;50.090;18.522;2022-08-03T19:10:53;22.60;90.40
57719;DHT22;43561;50.090;18.522;2022-08-03T19:21:02;22.40;91.20
57719;DHT22;43561;50.090;18.522;2022-08-03T19:31:16;22.10;94.10
57719;DHT22;43561;50.090;18.522;2022-08-03T19:41:23;21.90;97.40
57719;DHT22;43561;50.090;18.522;2022-08-03T19:51:33;21.50;97.40
57719;DHT22;43561;50.090;18.522;2022-08-03T20:01:55;21.20;99.00
57719;DHT22;43561;50.090;18.522;2022-08-03T20:11:58;20.90;99.90
57719;DHT22;43561;50.090;18.522;2022-08-03T20:22:01;20.70;99.90
57719;DHT22;43561;50.090;18.522;2022-08-03T20:32:03;20.40;99.90
57719;DHT22;43561;50.090;18.522;2022-08-03T20:42:07;20.20;99.90
57719;DHT22;43561;50.090;18.522;2022-08-03T20:52:15;19.80;99.90
57719;DHT22;43561;50.090;18.522;2022-08-03T21:02:21;19.70;99.90
57719;DHT22;43561;50.090;18.522;2022-08-03T21:12:39;19.60;99.90
57719;DHT22;43561;50.090;18.522;2022-08-03T21:22:48;19.30;99.90
57719;DHT22;43561;50.090;18.522;2022-08-03T21:32:54;18.80;99.90
57719;DHT22;43561;50.090;18.522;2022-08-03T21:42:56;18.80;99.90
57719;DHT22;43561;50.090;18.522;2022-08-03T21:52:58;18.80;99.90
57719;DHT22;43561;50.090;18.522;2022-08-03T22:03:01;18.60;99.90
57719;DHT22;43561;50.090;18.522;2022-08-03T22:13:18;18.20;99.90
57719;DHT22;43561;50.090;18.522;2022-08-03T22:23:44;18.20;99.90
57719;DHT22;43561;50.090;18.522;2022-08-03T22:33:47;18.20;99.90
57719;DHT22;43561;50.090;18.522;2022-08-03T22:43:49;18.20;99.90
57719;DHT22;43561;50.090;18.522;2022-08-03T22:53:52;17.60;99.90
57719;DHT22;43561;50.090;18.522;2022-08-03T23:03:58;17.50;99.90
57719;DHT22;43561;50.090;18.522;2022-08-03T23:14:09;17.40;99.90
57719;DHT22;43561;50.090;18.522;2022-08-03T23:24:11;17.40;99.90
57719;DHT22;43561;50.090;18.522;2022-08-03T23:34:32;17.30;99.90
57719;DHT22;43561;50.090;18.522;2022-08-03T23:44:36;17.30;99.90
